sensor_id;sensor_type;location;lat;lon;timestamp;pressure;altitude;pressure_sealevel;temperature;humidity
76108;BME280;64834;52.516;10.528;2022-12-24T00:01:01;99778.19;;;4.92;96.68
76108;BME280;64834;52.516;10.528;2022-12-24T00:03:26;99774.75;;;4.78;97.92
76108;BME280;64834;52.516;10.528;2022-12-24T00:05:51;99777.81;;;4.85;97.52
76108;BME280;64834;52.516;10.528;2022-12-24T00:08:17;99793.88;;;4.80;97.54
76108;BME280;64834;52.516;10.528;2022-12-24T00:10:42;99786.16;;;4.95;97.82
76108;BME280;64834;52.516;10.528;2022-12-24T00:13:08;99777.81;;;4.85;97.85
76108;BME280;64834;52.516;10.528;2022-12-24T00:15:33;99790.44;;;4.94;97.33
76108;BME280;64834;52.516;10.528;2022-12-24T00:17:58;99790.69;;;4.84;97.79
76108;BME280;64834;52.516;10.528;2022-12-24T00:20:24;99789.38;;;4.91;97.32
76108;BME280;64834;52.516;10.528;2022-12-24T00:22:49;99787.69;;;4.91;96.99
76108;BME280;64834;52.516;10.528;2022-12-24T00:25:14;99785.97;;;4.92;97.79
76108;BME280;64834;52.516;10.528;2022-12-24T00:27:40;99790.69;;;4.84;97.65
76108;BME280;64834;52.516;10.528;2022-12-24T00:30:05;99783.00;;;4.85;97.85
76108;BME280;64834;52.516;10.528;2022-12-24T00:32:31;99784.47;;;4.95;97.71
76108;BME280;64834;52.516;10.528;2022-12-24T00:34:56;99785.25;;;4.94;97.58
76108;BME280;64834;52.516;10.528;2022-12-24T00:37:21;99792.06;;;4.92;97.04
76108;BME280;64834;52.516;10.528;2022-12-24T00:39:47;99793.09;;;5.09;97.22
76108;BME280;64834;52.516;10.528;2022-12-24T00:42:12;99790.63;;;5.10;96.79
76108;BME280;64834;52.516;10.528;2022-12-24T00:44:37;99802.28;;;5.17;96.25
76108;BME280;64834;52.516;10.528;2022-12-24T00:47:03;99803.97;;;5.17;96.50
76108;BME280;64834;52.516;10.528;2022-12-24T00:49:28;99798.22;;;4.94;96.63
76108;BME280;64834;52.516;10.528;2022-12-24T00:51:53;99802.47;;;5.07;97.11
76108;BME280;64834;52.516;10.528;2022-12-24T00:54:18;99796.50;;;5.08;96.77
76108;BME280;64834;52.516;10.528;2022-12-24T00:56:44;99808.53;;;5.21;96.13
76108;BME280;64834;52.516;10.528;2022-12-24T00:59:09;99805.03;;;5.20;96.06
76108;BME280;64834;52.516;10.528;2022-12-24T01:01:34;99802.88;;;5.13;96.44
76108;BME280;64834;52.516;10.528;2022-12-24T01:04:00;99806.88;;;5.08;96.38
76108;BME280;64834;52.516;10.528;2022-12-24T01:06:44;99816.94;;;5.17;96.34
76108;BME280;64834;52.516;10.528;2022-12-24T01:09:09;99818.13;;;5.22;96.38
76108;BME280;64834;52.516;10.528;2022-12-24T01:11:35;99823.41;;;5.23;95.99
76108;BME280;64834;52.516;10.528;2022-12-24T01:14:00;99831.19;;;5.23;96.16
76108;BME280;64834;52.516;10.528;2022-12-24T01:16:25;99822.28;;;5.20;96.11
76108;BME280;64834;52.516;10.528;2022-12-24T01:18:52;99825.22;;;5.11;95.94
76108;BME280;64834;52.516;10.528;2022-12-24T01:21:17;99821.53;;;5.07;96.61
76108;BME280;64834;52.516;10.528;2022-12-24T01:23:42;99819.03;;;5.09;96.64
76108;BME280;64834;52.516;10.528;2022-12-24T01:26:09;99824.03;;;5.06;96.84
76108;BME280;64834;52.516;10.528;2022-12-24T01:28:36;99835.41;;;4.95;96.92
76108;BME280;64834;52.516;10.528;2022-12-24T01:31:01;99837.19;;;4.96;97.21
76108;BME280;64834;52.516;10.528;2022-12-24T01:33:28;99840.56;;;5.08;96.96
76108;BME280;64834;52.516;10.528;2022-12-24T01:35:54;99832.75;;;5.21;96.42
76108;BME280;64834;52.516;10.528;2022-12-24T01:38:19;99843.03;;;5.20;96.20
76108;BME280;64834;52.516;10.528;2022-12-24T01:40:44;99839.38;;;5.16;96.06
76108;BME280;64834;52.516;10.528;2022-12-24T01:43:31;99848.75;;;5.14;96.36
76108;BME280;64834;52.516;10.528;2022-12-24T01:46:03;99860.66;;;4.97;96.84
76108;BME280;64834;52.516;10.528;2022-12-24T01:48:40;99859.16;;;4.87;97.47
76108;BME280;64834;52.516;10.528;2022-12-24T01:53:36;99858.44;;;4.90;97.73
76108;BME280;64834;52.516;10.528;2022-12-24T01:56:04;99855.22;;;5.07;97.57
76108;BME280;64834;52.516;10.528;2022-12-24T01:58:31;99833.56;;;5.20;96.68
76108;BME280;64834;52.516;10.528;2022-12-24T02:00:57;99847.66;;;5.10;97.08
76108;BME280;64834;52.516;10.528;2022-12-24T02:03:22;99858.47;;;5.03;97.01
76108;BME280;64834;52.516;10.528;2022-12-24T02:05:49;99858.22;;;5.13;96.70
76108;BME280;64834;52.516;10.528;2022-12-24T02:08:16;99866.81;;;5.12;96.65
76108;BME280;64834;52.516;10.528;2022-12-24T02:10:42;99869.09;;;5.08;96.64
76108;BME280;64834;52.516;10.528;2022-12-24T02:13:08;99875.09;;;5.07;96.58
76108;BME280;64834;52.516;10.528;2022-12-24T02:15:44;99877.75;;;5.08;96.49
76108;BME280;64834;52.516;10.528;2022-12-24T02:18:51;99874.41;;;5.09;96.49
76108;BME280;64834;52.516;10.528;2022-12-24T02:21:25;99865.59;;;5.07;97.23
76108;BME280;64834;52.516;10.528;2022-12-24T02:24:18;99867.31;;;5.07;96.78
76108;BME280;64834;52.516;10.528;2022-12-24T02:27:03;99867.53;;;5.10;96.43
76108;BME280;64834;52.516;10.528;2022-12-24T02:32:11;99882.19;;;5.09;96.68
76108;BME280;64834;52.516;10.528;2022-12-24T02:34:44;99882.88;;;5.07;96.67
76108;BME280;64834;52.516;10.528;2022-12-24T02:37:15;99887.66;;;5.01;97.32
76108;BME280;64834;52.516;10.528;2022-12-24T02:39:50;99889.53;;;4.90;97.35
76108;BME280;64834;52.516;10.528;2022-12-24T02:42:19;99886.47;;;4.82;97.43
76108;BME280;64834;52.516;10.528;2022-12-24T02:44:49;99886.38;;;4.81;98.04
76108;BME280;64834;52.516;10.528;2022-12-24T02:47:18;99892.94;;;4.89;97.91
76108;BME280;64834;52.516;10.528;2022-12-24T02:49:47;99896.25;;;5.00;97.60
76108;BME280;64834;52.516;10.528;2022-12-24T02:55:01;99890.72;;;5.08;96.44
76108;BME280;64834;52.516;10.528;2022-12-24T02:57:42;99890.97;;;4.98;96.64
76108;BME280;64834;52.516;10.528;2022-12-24T03:00:15;99904.59;;;4.96;97.01
76108;BME280;64834;52.516;10.528;2022-12-24T03:05:51;99899.63;;;5.12;96.75
76108;BME280;64834;52.516;10.528;2022-12-24T03:11:02;99901.72;;;5.04;96.72
76108;BME280;64834;52.516;10.528;2022-12-24T03:13:28;99899.81;;;5.02;96.85
76108;BME280;64834;52.516;10.528;2022-12-24T03:15:54;99899.81;;;5.02;97.05
76108;BME280;64834;52.516;10.528;2022-12-24T03:18:23;99898.91;;;5.01;97.11
76108;BME280;64834;52.516;10.528;2022-12-24T03:20:53;99904.59;;;4.82;97.38
76108;BME280;64834;52.516;10.528;2022-12-24T03:23:21;99909.91;;;4.84;97.38
76108;BME280;64834;52.516;10.528;2022-12-24T03:25:46;99904.72;;;5.10;97.51
76108;BME280;64834;52.516;10.528;2022-12-24T03:28:14;99903.31;;;5.16;96.83
76108;BME280;64834;52.516;10.528;2022-12-24T03:30:42;99911.88;;;5.01;96.79
76108;BME280;64834;52.516;10.528;2022-12-24T03:33:08;99919.66;;;5.01;96.93
76108;BME280;64834;52.516;10.528;2022-12-24T03:35:33;99923.13;;;5.15;96.89
76108;BME280;64834;52.516;10.528;2022-12-24T03:37:59;99924.25;;;5.05;96.87
76108;BME280;64834;52.516;10.528;2022-12-24T03:40:24;99918.69;;;4.99;97.04
76108;BME280;64834;52.516;10.528;2022-12-24T03:42:49;99919.88;;;5.18;96.44
76108;BME280;64834;52.516;10.528;2022-12-24T03:45:15;99919.25;;;5.08;97.10
76108;BME280;64834;52.516;10.528;2022-12-24T03:47:40;99919.16;;;5.07;96.95
76108;BME280;64834;52.516;10.528;2022-12-24T03:50:06;99926.34;;;5.11;97.02
76108;BME280;64834;52.516;10.528;2022-12-24T03:52:31;99926.34;;;5.11;96.98
76108;BME280;64834;52.516;10.528;2022-12-24T03:54:57;99931.53;;;5.11;96.71
76108;BME280;64834;52.516;10.528;2022-12-24T03:57:22;99928.72;;;5.08;97.42
76108;BME280;64834;52.516;10.528;2022-12-24T03:59:47;99938.22;;;5.07;97.12
76108;BME280;64834;52.516;10.528;2022-12-24T04:02:13;99948.59;;;5.07;97.45
76108;BME280;64834;52.516;10.528;2022-12-24T04:04:38;99945.19;;;4.95;97.48
76108;BME280;64834;52.516;10.528;2022-12-24T04:07:04;99942.31;;;5.04;97.73
76108;BME280;64834;52.516;10.528;2022-12-24T04:09:30;99953.59;;;5.04;97.90
76108;BME280;64834;52.516;10.528;2022-12-24T04:11:55;99952.56;;;5.02;97.86
76108;BME280;64834;52.516;10.528;2022-12-24T04:14:20;99956.94;;;4.90;97.87
76108;BME280;64834;52.516;10.528;2022-12-24T04:16:46;99956.19;;;4.91;98.43
76108;BME280;64834;52.516;10.528;2022-12-24T04:19:11;99955.16;;;5.02;98.23
76108;BME280;64834;52.516;10.528;2022-12-24T04:21:36;99967.72;;;4.96;98.30
76108;BME280;64834;52.516;10.528;2022-12-24T04:24:02;99977.41;;;4.85;98.36
76108;BME280;64834;52.516;10.528;2022-12-24T04:26:27;99982.50;;;4.84;98.45
76108;BME280;64834;52.516;10.528;2022-12-24T04:28:52;99974.81;;;5.12;98.59
76108;BME280;64834;52.516;10.528;2022-12-24T04:31:18;99973.75;;;5.22;97.63
76108;BME280;64834;52.516;10.528;2022-12-24T04:33:44;99977.72;;;5.17;97.70
76108;BME280;64834;52.516;10.528;2022-12-24T04:36:14;99978.41;;;5.14;97.27
76108;BME280;64834;52.516;10.528;2022-12-24T04:38:41;99975.22;;;5.31;97.33
76108;BME280;64834;52.516;10.528;2022-12-24T04:41:11;99980.59;;;5.21;97.23
76108;BME280;64834;52.516;10.528;2022-12-24T04:43:37;99987.28;;;5.18;97.42
76108;BME280;64834;52.516;10.528;2022-12-24T04:46:07;99989.88;;;5.18;97.47
76108;BME280;64834;52.516;10.528;2022-12-24T04:48:33;99998.16;;;5.12;97.81
76108;BME280;64834;52.516;10.528;2022-12-24T04:51:03;99981.63;;;5.23;97.47
76108;BME280;64834;52.516;10.528;2022-12-24T04:53:30;99984.69;;;5.18;97.42
76108;BME280;64834;52.516;10.528;2022-12-24T04:55:55;99987.19;;;5.29;97.84
76108;BME280;64834;52.516;10.528;2022-12-24T04:58:21;99996.69;;;5.29;98.19
76108;BME280;64834;52.516;10.528;2022-12-24T05:00:46;99998.66;;;5.33;98.71
76108;BME280;64834;52.516;10.528;2022-12-24T05:03:11;99994.25;;;5.45;98.82
76108;BME280;64834;52.516;10.528;2022-12-24T05:05:37;99989.28;;;5.48;98.79
76108;BME280;64834;52.516;10.528;2022-12-24T05:08:02;99991.38;;;5.54;99.04
76108;BME280;64834;52.516;10.528;2022-12-24T05:10:27;99998.75;;;5.61;98.97
76108;BME280;64834;52.516;10.528;2022-12-24T05:12:53;100009.78;;;5.72;99.25
76108;BME280;64834;52.516;10.528;2022-12-24T05:15:18;100002.28;;;5.76;99.10
76108;BME280;64834;52.516;10.528;2022-12-24T05:17:43;100014.84;;;5.83;99.09
76108;BME280;64834;52.516;10.528;2022-12-24T05:20:09;100008.69;;;5.94;98.87
76108;BME280;64834;52.516;10.528;2022-12-24T05:22:34;100006.72;;;6.18;98.72
76108;BME280;64834;52.516;10.528;2022-12-24T05:25:18;100010.69;;;6.27;98.59
76108;BME280;64834;52.516;10.528;2022-12-24T05:28:02;100025.94;;;6.35;98.34
76108;BME280;64834;52.516;10.528;2022-12-24T05:30:27;100023.34;;;6.35;98.23
76108;BME280;64834;52.516;10.528;2022-12-24T05:32:52;100035.00;;;6.42;98.11
76108;BME280;64834;52.516;10.528;2022-12-24T05:35:18;100038.50;;;6.42;97.87
76108;BME280;64834;52.516;10.528;2022-12-24T05:37:44;100039.94;;;6.52;97.87
76108;BME280;64834;52.516;10.528;2022-12-24T05:40:09;100041.13;;;6.57;97.71
76108;BME280;64834;52.516;10.528;2022-12-24T05:42:34;100032.91;;;6.64;97.77
76108;BME280;64834;52.516;10.528;2022-12-24T05:45:00;100033.56;;;6.75;97.35
76108;BME280;64834;52.516;10.528;2022-12-24T05:47:25;100044.03;;;6.76;97.25
76108;BME280;64834;52.516;10.528;2022-12-24T05:49:50;100043.22;;;6.78;97.40
76108;BME280;64834;52.516;10.528;2022-12-24T05:52:16;100052.94;;;6.80;97.23
76108;BME280;64834;52.516;10.528;2022-12-24T05:54:41;100046.09;;;6.82;97.53
76108;BME280;64834;52.516;10.528;2022-12-24T05:57:06;100054.09;;;6.85;97.49
76108;BME280;64834;52.516;10.528;2022-12-24T05:59:32;100055.53;;;6.95;97.64
76108;BME280;64834;52.516;10.528;2022-12-24T06:01:57;100060.28;;;7.02;97.93
76108;BME280;64834;52.516;10.528;2022-12-24T06:04:22;100047.66;;;7.08;97.82
76108;BME280;64834;52.516;10.528;2022-12-24T06:06:48;100045.13;;;7.10;97.98
76108;BME280;64834;52.516;10.528;2022-12-24T06:09:13;100057.53;;;7.14;98.07
76108;BME280;64834;52.516;10.528;2022-12-24T06:11:39;100066.31;;;7.16;97.91
76108;BME280;64834;52.516;10.528;2022-12-24T06:14:04;100075.72;;;7.14;98.20
76108;BME280;64834;52.516;10.528;2022-12-24T06:16:29;100070.34;;;7.25;98.27
76108;BME280;64834;52.516;10.528;2022-12-24T06:18:55;100073.84;;;7.26;98.04
76108;BME280;64834;52.516;10.528;2022-12-24T06:21:20;100079.34;;;7.30;97.87
76108;BME280;64834;52.516;10.528;2022-12-24T06:23:46;100084.00;;;7.36;97.58
76108;BME280;64834;52.516;10.528;2022-12-24T06:26:17;100089.72;;;7.45;96.96
76108;BME280;64834;52.516;10.528;2022-12-24T06:28:43;100093.41;;;7.49;96.55
76108;BME280;64834;52.516;10.528;2022-12-24T06:31:12;100089.69;;;7.60;95.44
76108;BME280;64834;52.516;10.528;2022-12-24T06:33:41;100092.94;;;7.71;94.78
76108;BME280;64834;52.516;10.528;2022-12-24T06:36:10;100098.94;;;7.70;94.81
76108;BME280;64834;52.516;10.528;2022-12-24T06:38:37;100103.28;;;7.69;94.78
76108;BME280;64834;52.516;10.528;2022-12-24T06:41:06;100112.06;;;7.71;94.97
76108;BME280;64834;52.516;10.528;2022-12-24T06:43:32;100107.66;;;7.70;95.03
76108;BME280;64834;52.516;10.528;2022-12-24T06:46:02;100115.56;;;7.72;95.02
76108;BME280;64834;52.516;10.528;2022-12-24T06:48:27;100111.78;;;7.67;95.22
76108;BME280;64834;52.516;10.528;2022-12-24T06:50:53;100112.88;;;7.70;95.07
76108;BME280;64834;52.516;10.528;2022-12-24T06:53:18;100122.91;;;7.79;94.81
76108;BME280;64834;52.516;10.528;2022-12-24T06:55:43;100130.13;;;7.68;95.11
76108;BME280;64834;52.516;10.528;2022-12-24T06:58:09;100140.09;;;7.61;95.26
76108;BME280;64834;52.516;10.528;2022-12-24T07:00:34;100135.22;;;7.67;95.33
76108;BME280;64834;52.516;10.528;2022-12-24T07:03:00;100147.63;;;7.71;95.40
76108;BME280;64834;52.516;10.528;2022-12-24T07:05:26;100156.53;;;7.74;95.17
76108;BME280;64834;52.516;10.528;2022-12-24T07:07:52;100152.13;;;7.73;95.35
76108;BME280;64834;52.516;10.528;2022-12-24T07:10:18;100155.44;;;7.71;95.72
76108;BME280;64834;52.516;10.528;2022-12-24T07:12:44;100159.00;;;7.73;95.28
76108;BME280;64834;52.516;10.528;2022-12-24T07:15:11;100162.53;;;7.73;95.57
76108;BME280;64834;52.516;10.528;2022-12-24T07:17:36;100161.00;;;7.77;95.36
76108;BME280;64834;52.516;10.528;2022-12-24T07:20:02;100171.41;;;7.77;94.60
76108;BME280;64834;52.516;10.528;2022-12-24T07:22:28;100172.31;;;7.77;95.10
76108;BME280;64834;52.516;10.528;2022-12-24T07:24:53;100176.81;;;7.80;94.54
76108;BME280;64834;52.516;10.528;2022-12-24T07:27:19;100183.63;;;7.78;94.66
76108;BME280;64834;52.516;10.528;2022-12-24T07:29:44;100190.03;;;7.68;95.13
76108;BME280;64834;52.516;10.528;2022-12-24T07:32:09;100200.78;;;7.74;95.09
76108;BME280;64834;52.516;10.528;2022-12-24T07:34:35;100200.78;;;7.74;94.93
76108;BME280;64834;52.516;10.528;2022-12-24T07:37:00;100206.00;;;7.74;95.25
76108;BME280;64834;52.516;10.528;2022-12-24T07:39:26;100206.38;;;7.80;94.71
76108;BME280;64834;52.516;10.528;2022-12-24T07:41:51;100205.47;;;7.80;94.52
76108;BME280;64834;52.516;10.528;2022-12-24T07:44:16;100211.22;;;7.74;94.95
76108;BME280;64834;52.516;10.528;2022-12-24T07:46:42;100216.31;;;7.73;95.15
76108;BME280;64834;52.516;10.528;2022-12-24T07:49:08;100218.66;;;7.83;94.15
76108;BME280;64834;52.516;10.528;2022-12-24T07:51:34;100222.81;;;7.79;94.15
76108;BME280;64834;52.516;10.528;2022-12-24T07:53:59;100241.03;;;7.79;94.00
76108;BME280;64834;52.516;10.528;2022-12-24T07:56:25;100222.97;;;7.82;93.78
76108;BME280;64834;52.516;10.528;2022-12-24T07:58:50;100229.97;;;7.83;93.91
76108;BME280;64834;52.516;10.528;2022-12-24T08:01:16;100248.94;;;7.81;93.49
76108;BME280;64834;52.516;10.528;2022-12-24T08:03:42;100248.72;;;7.78;93.59
76108;BME280;64834;52.516;10.528;2022-12-24T08:06:07;100249.84;;;7.81;93.51
76108;BME280;64834;52.516;10.528;2022-12-24T08:08:33;100250.38;;;7.76;93.31
76108;BME280;64834;52.516;10.528;2022-12-24T08:11:02;100256.00;;;7.83;92.85
76108;BME280;64834;52.516;10.528;2022-12-24T08:13:28;100261.97;;;7.81;92.93
76108;BME280;64834;52.516;10.528;2022-12-24T08:15:54;100262.13;;;7.84;93.06
76108;BME280;64834;52.516;10.528;2022-12-24T08:18:19;100264.72;;;7.84;93.32
76108;BME280;64834;52.516;10.528;2022-12-24T08:20:45;100275.06;;;7.82;93.08
76108;BME280;64834;52.516;10.528;2022-12-24T08:23:11;100285.47;;;7.82;92.76
76108;BME280;64834;52.516;10.528;2022-12-24T08:25:36;100289.19;;;7.86;92.74
76108;BME280;64834;52.516;10.528;2022-12-24T08:28:02;100292.41;;;7.82;92.76
76108;BME280;64834;52.516;10.528;2022-12-24T08:30:27;100298.88;;;7.89;92.19
76108;BME280;64834;52.516;10.528;2022-12-24T08:32:53;100303.81;;;7.84;92.84
76108;BME280;64834;52.516;10.528;2022-12-24T08:35:19;100309.53;;;7.78;92.52
76108;BME280;64834;52.516;10.528;2022-12-24T08:37:44;100308.94;;;7.82;92.35
76108;BME280;64834;52.516;10.528;2022-12-24T08:40:10;100305.59;;;7.85;92.36
76108;BME280;64834;52.516;10.528;2022-12-24T08:42:35;100312.25;;;7.80;92.04
76108;BME280;64834;52.516;10.528;2022-12-24T08:45:01;100315.13;;;7.84;91.92
76108;BME280;64834;52.516;10.528;2022-12-24T08:47:26;100320.09;;;7.95;91.33
76108;BME280;64834;52.516;10.528;2022-12-24T08:49:51;100323.13;;;7.88;91.86
76108;BME280;64834;52.516;10.528;2022-12-24T08:52:17;100322.31;;;7.89;91.58
76108;BME280;64834;52.516;10.528;2022-12-24T08:54:42;100324.56;;;7.82;91.39
76108;BME280;64834;52.516;10.528;2022-12-24T08:57:08;100330.88;;;7.86;91.43
76108;BME280;64834;52.516;10.528;2022-12-24T08:59:33;100338.13;;;7.92;91.84
76108;BME280;64834;52.516;10.528;2022-12-24T09:01:58;100332.00;;;7.91;91.66
76108;BME280;64834;52.516;10.528;2022-12-24T09:04:24;100337.88;;;7.87;91.47
76108;BME280;64834;52.516;10.528;2022-12-24T09:06:49;100351.25;;;7.93;91.75
76108;BME280;64834;52.516;10.528;2022-12-24T09:09:14;100347.03;;;7.95;91.68
76108;BME280;64834;52.516;10.528;2022-12-24T09:11:40;100346.13;;;7.95;92.03
76108;BME280;64834;52.516;10.528;2022-12-24T09:14:05;100354.03;;;7.96;91.72
76108;BME280;64834;52.516;10.528;2022-12-24T09:16:30;100365.03;;;8.05;91.55
76108;BME280;64834;52.516;10.528;2022-12-24T09:18:56;100366.47;;;8.15;91.38
76108;BME280;64834;52.516;10.528;2022-12-24T09:21:22;100376.19;;;8.18;91.44
76108;BME280;64834;52.516;10.528;2022-12-24T09:23:47;100383.81;;;8.15;91.29
76108;BME280;64834;52.516;10.528;2022-12-24T09:26:24;100374.19;;;8.14;91.75
76108;BME280;64834;52.516;10.528;2022-12-24T09:28:50;100380.06;;;8.24;91.06
76108;BME280;64834;52.516;10.528;2022-12-24T09:31:17;100382.75;;;8.26;90.62
76108;BME280;64834;52.516;10.528;2022-12-24T09:33:43;100386.63;;;8.32;90.53
76108;BME280;64834;52.516;10.528;2022-12-24T09:36:09;100389.41;;;8.35;90.19
76108;BME280;64834;52.516;10.528;2022-12-24T09:38:35;100386.63;;;8.32;90.01
76108;BME280;64834;52.516;10.528;2022-12-24T09:41:10;100393.50;;;8.45;89.62
76108;BME280;64834;52.516;10.528;2022-12-24T09:43:37;100391.41;;;8.54;88.75
76108;BME280;64834;52.516;10.528;2022-12-24T09:46:18;100400.47;;;8.61;88.84
76108;BME280;64834;52.516;10.528;2022-12-24T09:48:47;100405.81;;;8.62;88.01
76108;BME280;64834;52.516;10.528;2022-12-24T09:51:27;100409.78;;;8.56;88.66
76108;BME280;64834;52.516;10.528;2022-12-24T09:54:06;100419.41;;;8.57;89.19
76108;BME280;64834;52.516;10.528;2022-12-24T09:56:44;100413.72;;;8.64;89.45
76108;BME280;64834;52.516;10.528;2022-12-24T09:59:45;100408.66;;;8.67;88.12
76108;BME280;64834;52.516;10.528;2022-12-24T10:02:13;100415.34;;;8.62;87.99
76108;BME280;64834;52.516;10.528;2022-12-24T10:04:40;100422.38;;;8.63;87.72
76108;BME280;64834;52.516;10.528;2022-12-24T10:10:05;100427.03;;;8.69;87.27
76108;BME280;64834;52.516;10.528;2022-12-24T10:12:59;100439.44;;;8.73;88.06
76108;BME280;64834;52.516;10.528;2022-12-24T10:15:32;100439.34;;;8.71;88.04
76108;BME280;64834;52.516;10.528;2022-12-24T10:21:12;100434.13;;;8.71;88.25
76108;BME280;64834;52.516;10.528;2022-12-24T10:26:26;100436.66;;;8.84;87.58
76108;BME280;64834;52.516;10.528;2022-12-24T10:29:00;100432.31;;;8.85;87.54
76108;BME280;64834;52.516;10.528;2022-12-24T10:31:30;100428.38;;;8.77;87.29
76108;BME280;64834;52.516;10.528;2022-12-24T10:34:02;100438.38;;;8.69;87.84
76108;BME280;64834;52.516;10.528;2022-12-24T10:36:30;100441.06;;;8.71;87.91
76108;BME280;64834;52.516;10.528;2022-12-24T10:38:56;100446.63;;;8.77;88.69
76108;BME280;64834;52.516;10.528;2022-12-24T10:41:24;100451.94;;;8.78;88.75
76108;BME280;64834;52.516;10.528;2022-12-24T10:43:50;100448.97;;;8.72;88.80
76108;BME280;64834;52.516;10.528;2022-12-24T10:46:35;100456.47;;;8.81;88.16
76108;BME280;64834;52.516;10.528;2022-12-24T10:49:30;100462.22;;;8.75;89.34
76108;BME280;64834;52.516;10.528;2022-12-24T10:52:38;100464.63;;;8.72;89.00
76108;BME280;64834;52.516;10.528;2022-12-24T10:55:09;100471.00;;;8.77;89.50
76108;BME280;64834;52.516;10.528;2022-12-24T10:57:36;100474.59;;;8.79;89.00
76108;BME280;64834;52.516;10.528;2022-12-24T11:00:03;100467.59;;;8.78;89.13
76108;BME280;64834;52.516;10.528;2022-12-24T11:02:33;100474.06;;;8.85;88.59
76108;BME280;64834;52.516;10.528;2022-12-24T11:05:00;100474.97;;;8.85;89.05
76108;BME280;64834;52.516;10.528;2022-12-24T11:07:28;100476.59;;;8.83;89.02
76108;BME280;64834;52.516;10.528;2022-12-24T11:10:04;100477.50;;;8.84;89.19
76108;BME280;64834;52.516;10.528;2022-12-24T11:12:45;100482.00;;;8.86;88.83
76108;BME280;64834;52.516;10.528;2022-12-24T11:15:21;100474.81;;;8.82;88.61
76108;BME280;64834;52.516;10.528;2022-12-24T11:17:56;100471.22;;;8.80;88.62
76108;BME280;64834;52.516;10.528;2022-12-24T11:20:25;100475.50;;;8.80;88.78
76108;BME280;64834;52.516;10.528;2022-12-24T11:22:51;100483.31;;;8.80;89.29
76108;BME280;64834;52.516;10.528;2022-12-24T11:25:23;100478.22;;;8.81;88.48
76108;BME280;64834;52.516;10.528;2022-12-24T11:27:51;100473.00;;;8.81;88.49
76108;BME280;64834;52.516;10.528;2022-12-24T11:30:23;100491.63;;;8.87;88.63
76108;BME280;64834;52.516;10.528;2022-12-24T11:33:13;100486.41;;;8.87;88.45
76108;BME280;64834;52.516;10.528;2022-12-24T11:35:41;100488.13;;;8.87;88.80
76108;BME280;64834;52.516;10.528;2022-12-24T11:38:09;100484.63;;;8.86;88.45
76108;BME280;64834;52.516;10.528;2022-12-24T11:40:37;100491.44;;;8.84;88.53
76108;BME280;64834;52.516;10.528;2022-12-24T11:43:05;100502.53;;;8.80;88.35
76108;BME280;64834;52.516;10.528;2022-12-24T11:45:31;100505.13;;;8.80;88.55
76108;BME280;64834;52.516;10.528;2022-12-24T11:47:58;100506.13;;;8.82;87.98
76108;BME280;64834;52.516;10.528;2022-12-24T11:50:35;100508.53;;;8.79;88.41
76108;BME280;64834;52.516;10.528;2022-12-24T11:53:14;100503.66;;;8.85;87.68
76108;BME280;64834;52.516;10.528;2022-12-24T11:55:56;100501.72;;;8.81;88.18
76108;BME280;64834;52.516;10.528;2022-12-24T11:58:42;100501.44;;;8.77;88.65
76108;BME280;64834;52.516;10.528;2022-12-24T12:03:38;100500.69;;;8.64;90.00
76108;BME280;64834;52.516;10.528;2022-12-24T12:06:22;100508.88;;;8.56;90.81
76108;BME280;64834;52.516;10.528;2022-12-24T12:08:49;100496.53;;;8.53;90.56
76108;BME280;64834;52.516;10.528;2022-12-24T12:11:18;100492.66;;;8.47;91.26
76108;BME280;64834;52.516;10.528;2022-12-24T12:13:44;100497.19;;;8.49;90.95
76108;BME280;64834;52.516;10.528;2022-12-24T12:16:16;100504.88;;;8.48;91.55
76108;BME280;64834;52.516;10.528;2022-12-24T12:18:50;100499.50;;;8.45;91.81
76108;BME280;64834;52.516;10.528;2022-12-24T12:21:24;100498.50;;;8.43;92.09
76108;BME280;64834;52.516;10.528;2022-12-24T12:24:04;100500.78;;;8.51;92.66
76108;BME280;64834;52.516;10.528;2022-12-24T12:26:31;100499.06;;;8.52;92.23
76108;BME280;64834;52.516;10.528;2022-12-24T12:29:05;100508.59;;;8.66;92.19
76108;BME280;64834;52.516;10.528;2022-12-24T12:31:40;100517.53;;;8.70;91.65
76108;BME280;64834;52.516;10.528;2022-12-24T12:34:20;100519.69;;;8.77;91.79
76108;BME280;64834;52.516;10.528;2022-12-24T12:36:56;100519.69;;;8.77;90.98
76108;BME280;64834;52.516;10.528;2022-12-24T12:39:23;100518.59;;;8.73;90.63
76108;BME280;64834;52.516;10.528;2022-12-24T12:42:22;100514.03;;;8.69;90.93
76108;BME280;64834;52.516;10.528;2022-12-24T12:48:07;100525.78;;;8.62;91.82
76108;BME280;64834;52.516;10.528;2022-12-24T12:50:47;100525.88;;;8.64;92.18
76108;BME280;64834;52.516;10.528;2022-12-24T12:56:21;100529.84;;;8.72;91.93
76108;BME280;64834;52.516;10.528;2022-12-24T12:59:01;100542.34;;;8.78;91.64
76108;BME280;64834;52.516;10.528;2022-12-24T13:01:49;100554.78;;;8.82;91.41
76108;BME280;64834;52.516;10.528;2022-12-24T13:10:40;100556.41;;;8.95;90.57
76108;BME280;64834;52.516;10.528;2022-12-24T13:13:40;100560.00;;;8.97;90.32
76108;BME280;64834;52.516;10.528;2022-12-24T13:16:28;100554.09;;;8.99;89.30
76108;BME280;64834;52.516;10.528;2022-12-24T13:19:28;100553.06;;;8.97;89.55
76108;BME280;64834;52.516;10.528;2022-12-24T13:21:59;100560.66;;;8.93;89.43
76108;BME280;64834;52.516;10.528;2022-12-24T13:24:29;100558.06;;;8.93;88.89
76108;BME280;64834;52.516;10.528;2022-12-24T13:27:03;100558.47;;;8.85;89.35
76108;BME280;64834;52.516;10.528;2022-12-24T13:29:57;100562.53;;;8.80;89.64
76108;BME280;64834;52.516;10.528;2022-12-24T13:37:32;100564.78;;;8.74;89.12
76108;BME280;64834;52.516;10.528;2022-12-24T13:45:40;100574.03;;;8.69;89.65
76108;BME280;64834;52.516;10.528;2022-12-24T13:50:37;100590.19;;;8.63;89.97
76108;BME280;64834;52.516;10.528;2022-12-24T13:53:06;100585.78;;;8.62;90.10